createdAt,value
2023-09-27T00:00:58.670Z,14.34
2023-09-27T00:03:25.093Z,14.24
2023-09-27T00:05:51.600Z,14.16
2023-09-27T00:08:18.095Z,14.03
2023-09-27T00:10:44.502Z,13.95
2023-09-27T00:13:11.131Z,13.93
2023-09-27T00:15:37.506Z,13.79
2023-09-27T00:18:03.943Z,13.76
2023-09-27T00:20:30.352Z,13.76
2023-09-27T00:22:56.822Z,13.66
2023-09-27T00:25:23.224Z,13.55
2023-09-27T00:27:49.761Z,13.47
2023-09-27T00:30:16.176Z,13.40
2023-09-27T00:32:42.894Z,13.49
2023-09-27T00:35:09.382Z,13.54
2023-09-27T00:37:35.825Z,13.64
2023-09-27T00:40:02.212Z,13.63
2023-09-27T00:42:28.587Z,13.59
2023-09-27T00:44:55.021Z,13.56
2023-09-27T00:47:21.429Z,13.49
2023-09-27T00:49:47.876Z,13.45
2023-09-27T00:52:14.259Z,13.54
2023-09-27T00:54:40.673Z,13.62
2023-09-27T00:57:07.050Z,13.58
2023-09-27T00:59:33.510Z,13.56
2023-09-27T01:02:00.027Z,13.57
2023-09-27T01:04:26.471Z,13.60
2023-09-27T01:06:52.852Z,13.67
2023-09-27T01:09:19.243Z,13.68
2023-09-27T01:11:45.642Z,13.56
2023-09-27T01:14:12.074Z,13.58
2023-09-27T01:16:38.485Z,13.61
2023-09-27T01:19:04.891Z,13.57
2023-09-27T01:21:31.273Z,13.56
2023-09-27T01:23:57.666Z,13.38
2023-09-27T01:26:24.214Z,13.17
2023-09-27T01:28:50.655Z,13.25
2023-09-27T01:31:17.234Z,13.25
2023-09-27T01:33:43.636Z,13.28
2023-09-27T01:36:10.031Z,13.30
2023-09-27T01:38:36.480Z,13.43
2023-09-27T01:41:02.957Z,13.42
2023-09-27T01:43:29.364Z,13.31
2023-09-27T01:45:55.765Z,13.30
2023-09-27T01:48:22.216Z,13.27
2023-09-27T01:50:48.678Z,13.28
2023-09-27T01:53:15.073Z,13.28
2023-09-27T01:55:41.479Z,13.27
2023-09-27T01:58:07.858Z,13.09
2023-09-27T02:00:34.236Z,13.12
2023-09-27T02:03:00.786Z,13.13
2023-09-27T02:05:27.385Z,13.14
2023-09-27T02:07:53.879Z,13.19
2023-09-27T02:10:20.301Z,13.24
2023-09-27T02:12:46.729Z,13.09
2023-09-27T02:15:13.113Z,13.12
2023-09-27T02:17:39.524Z,13.21
2023-09-27T02:20:05.930Z,13.35
2023-09-27T02:22:32.371Z,13.37
2023-09-27T02:24:58.757Z,13.31
2023-09-27T02:27:25.152Z,13.35
2023-09-27T02:29:51.520Z,13.22
2023-09-27T02:32:17.943Z,13.30
2023-09-27T02:34:44.386Z,13.27
2023-09-27T02:37:10.801Z,13.15
2023-09-27T02:39:37.235Z,13.09
2023-09-27T02:42:03.622Z,12.94
2023-09-27T02:44:30.068Z,12.95
2023-09-27T02:46:56.581Z,12.84
2023-09-27T02:49:23.034Z,12.82
2023-09-27T02:51:49.466Z,12.78
2023-09-27T02:54:15.855Z,12.77
2023-09-27T02:56:42.279Z,12.78
2023-09-27T02:59:08.702Z,12.76
2023-09-27T03:01:35.153Z,12.75
2023-09-27T03:04:01.670Z,12.74
2023-09-27T03:06:28.085Z,12.56
2023-09-27T03:08:54.549Z,12.56
2023-09-27T03:11:21.255Z,12.61
2023-09-27T03:13:47.653Z,12.65
2023-09-27T03:16:14.085Z,12.57
2023-09-27T03:18:40.511Z,12.32
2023-09-27T03:21:06.889Z,12.36
2023-09-27T03:23:33.314Z,12.39
2023-09-27T03:25:59.855Z,12.37
2023-09-27T03:28:26.245Z,12.38
2023-09-27T03:30:52.616Z,12.26
2023-09-27T03:33:19.051Z,12.32
2023-09-27T03:35:45.469Z,12.39
2023-09-27T03:38:11.853Z,12.28
2023-09-27T03:40:38.288Z,12.36
2023-09-27T03:43:04.771Z,12.40
2023-09-27T03:45:31.154Z,12.47
2023-09-27T03:47:57.601Z,12.45
2023-09-27T03:50:24.090Z,12.41
2023-09-27T03:52:50.529Z,12.42
2023-09-27T03:55:16.938Z,12.49
2023-09-27T03:57:43.378Z,12.53
2023-09-27T04:00:09.762Z,12.60
2023-09-27T04:02:36.210Z,12.67
2023-09-27T04:05:02.666Z,12.75
2023-09-27T04:07:29.084Z,12.63
2023-09-27T04:09:55.457Z,12.64
2023-09-27T04:12:21.831Z,12.67
2023-09-27T04:14:48.206Z,12.58
2023-09-27T04:17:14.651Z,12.62
2023-09-27T04:19:41.084Z,12.59
2023-09-27T04:22:07.519Z,12.62
2023-09-27T04:24:33.912Z,12.66
2023-09-27T04:27:00.292Z,12.63
2023-09-27T04:29:26.673Z,12.63
2023-09-27T04:31:53.091Z,12.66
2023-09-27T04:34:19.503Z,12.69
2023-09-27T04:36:45.893Z,12.48
2023-09-27T04:39:12.289Z,12.35
2023-09-27T04:41:38.692Z,12.42
2023-09-27T04:44:05.102Z,12.39
2023-09-27T04:46:31.497Z,12.38
2023-09-27T04:48:57.864Z,12.49
2023-09-27T04:51:24.261Z,12.35
2023-09-27T04:53:50.656Z,12.20
2023-09-27T04:56:17.065Z,12.22
2023-09-27T04:58:43.538Z,12.31
2023-09-27T05:01:09.952Z,12.32
2023-09-27T05:03:36.441Z,12.35
2023-09-27T05:06:02.890Z,12.37
2023-09-27T05:08:29.347Z,12.30
2023-09-27T05:10:55.802Z,12.42
2023-09-27T05:13:22.244Z,12.23
2023-09-27T05:15:48.630Z,12.24
2023-09-27T05:18:15.071Z,12.31
2023-09-27T05:20:41.550Z,12.31
2023-09-27T05:23:07.989Z,12.30
2023-09-27T05:25:34.444Z,12.30
2023-09-27T05:28:00.831Z,12.37
2023-09-27T05:30:27.207Z,12.23
2023-09-27T05:32:53.667Z,12.12
2023-09-27T05:35:20.112Z,12.03
2023-09-27T05:37:46.597Z,12.03
2023-09-27T05:40:13.006Z,12.08
2023-09-27T05:42:39.432Z,12.15
2023-09-27T05:45:05.858Z,12.16
2023-09-27T05:47:32.343Z,12.28
2023-09-27T05:49:58.902Z,12.26
2023-09-27T05:52:25.323Z,12.16
2023-09-27T05:54:51.700Z,12.20
2023-09-27T05:57:18.066Z,12.23
2023-09-27T05:59:44.568Z,12.36
2023-09-27T06:02:10.948Z,12.48
2023-09-27T06:04:37.364Z,12.54
2023-09-27T06:07:03.752Z,12.52
2023-09-27T06:09:30.139Z,12.57
2023-09-27T06:11:56.564Z,12.68
2023-09-27T06:14:23.000Z,12.73
2023-09-27T06:16:49.614Z,12.71
2023-09-27T06:19:15.997Z,12.64
2023-09-27T06:21:42.403Z,12.59
2023-09-27T06:24:08.795Z,12.42
2023-09-27T06:26:35.204Z,12.35
2023-09-27T06:29:01.885Z,12.48
2023-09-27T06:31:28.894Z,12.80
2023-09-27T06:33:55.404Z,12.86
2023-09-27T06:36:21.786Z,12.99
2023-09-27T06:38:48.317Z,13.18
2023-09-27T06:41:14.804Z,13.32
2023-09-27T06:43:41.216Z,13.55
2023-09-27T06:46:07.698Z,13.75
2023-09-27T06:48:34.141Z,13.56
2023-09-27T06:51:00.546Z,13.89
2023-09-27T06:53:31.310Z,13.80
2023-09-27T06:55:59.915Z,14.03
2023-09-27T06:58:26.463Z,13.90
2023-09-27T07:00:52.967Z,13.83
2023-09-27T07:03:19.539Z,14.03
2023-09-27T07:05:45.989Z,14.07
2023-09-27T07:08:12.455Z,14.19
2023-09-27T07:10:38.884Z,14.12
2023-09-27T07:13:05.246Z,13.97
2023-09-27T07:15:31.619Z,13.89
2023-09-27T07:17:58.088Z,13.91
2023-09-27T07:20:24.710Z,13.90
2023-09-27T07:22:51.243Z,14.05
2023-09-27T07:25:17.641Z,13.94
2023-09-27T07:27:44.042Z,13.98
2023-09-27T07:30:10.439Z,13.92
2023-09-27T07:32:36.913Z,14.08
2023-09-27T07:35:03.391Z,14.18
2023-09-27T07:37:29.777Z,14.14
2023-09-27T07:39:56.191Z,14.29
2023-09-27T07:42:22.598Z,14.23
2023-09-27T07:44:48.969Z,14.30
2023-09-27T07:47:15.396Z,14.35
2023-09-27T07:49:41.963Z,14.28
2023-09-27T07:52:08.364Z,14.24
2023-09-27T07:54:34.819Z,14.34
2023-09-27T07:57:01.226Z,14.35
2023-09-27T07:59:27.639Z,14.41
2023-09-27T08:01:54.023Z,14.40
2023-09-27T08:04:20.492Z,14.47
2023-09-27T08:06:46.979Z,14.63
2023-09-27T08:09:23.960Z,14.61
2023-09-27T08:11:59.700Z,14.65
2023-09-27T08:14:26.106Z,14.69
2023-09-27T08:16:53.716Z,14.80
2023-09-27T08:19:20.136Z,14.75
2023-09-27T08:21:46.510Z,14.74
2023-09-27T08:24:12.904Z,14.93
2023-09-27T08:26:39.305Z,15.03
2023-09-27T08:29:05.709Z,15.07
2023-09-27T08:31:32.106Z,15.19
2023-09-27T08:33:58.525Z,15.23
2023-09-27T08:36:24.910Z,15.14
2023-09-27T08:38:51.377Z,15.21
2023-09-27T08:41:17.836Z,15.10
2023-09-27T08:43:44.263Z,15.27
2023-09-27T08:46:10.664Z,15.31
2023-09-27T08:48:37.109Z,15.32
2023-09-27T08:51:03.518Z,15.26
2023-09-27T08:53:29.929Z,15.37
2023-09-27T08:55:56.341Z,15.52
2023-09-27T08:58:22.707Z,15.53
2023-09-27T09:00:49.096Z,15.56
2023-09-27T09:03:15.625Z,15.62
2023-09-27T09:05:42.247Z,15.61
2023-09-27T09:08:08.748Z,15.65
2023-09-27T09:10:35.153Z,15.63
2023-09-27T09:13:01.642Z,15.66
2023-09-27T09:15:28.077Z,15.79
2023-09-27T09:17:54.569Z,15.90
2023-09-27T09:20:21.098Z,16.03
2023-09-27T09:22:47.505Z,16.07
2023-09-27T09:25:13.881Z,15.98
2023-09-27T09:27:41.722Z,16.08
2023-09-27T09:30:09.232Z,16.26
2023-09-27T09:32:35.665Z,16.29
2023-09-27T09:35:02.135Z,16.38
2023-09-27T09:37:28.516Z,16.43
2023-09-27T09:39:54.900Z,16.59
2023-09-27T09:42:21.284Z,16.67
2023-09-27T09:44:47.668Z,16.83
2023-09-27T09:47:14.060Z,16.84
2023-09-27T09:49:40.461Z,16.92
2023-09-27T09:52:06.847Z,17.01
2023-09-27T09:54:33.332Z,17.01
2023-09-27T09:57:09.132Z,17.07
2023-09-27T09:59:40.394Z,17.23
2023-09-27T10:02:06.820Z,17.31
2023-09-27T10:04:33.953Z,17.28
2023-09-27T10:07:01.513Z,17.36
2023-09-27T10:09:27.894Z,17.46
2023-09-27T10:11:54.402Z,17.55
2023-09-27T10:14:20.832Z,17.58
2023-09-27T10:16:47.353Z,17.53
2023-09-27T10:19:13.737Z,17.72
2023-09-27T10:21:40.121Z,17.75
2023-09-27T10:24:06.506Z,17.88
2023-09-27T10:26:32.985Z,17.93
2023-09-27T10:28:59.452Z,17.98
2023-09-27T10:31:25.916Z,18.08
2023-09-27T10:33:52.519Z,18.26
2023-09-27T10:36:19.066Z,18.25
2023-09-27T10:38:45.451Z,18.42
2023-09-27T10:41:11.970Z,18.51
2023-09-27T10:43:38.392Z,18.64
2023-09-27T10:46:04.770Z,18.65
2023-09-27T10:48:31.200Z,18.63
2023-09-27T10:50:57.589Z,18.74
2023-09-27T10:53:24.006Z,18.87
2023-09-27T10:55:50.405Z,18.71
2023-09-27T10:58:16.800Z,18.77
2023-09-27T11:00:43.184Z,18.91
2023-09-27T11:03:09.678Z,19.06
2023-09-27T11:05:36.151Z,19.09
2023-09-27T11:08:02.559Z,19.15
2023-09-27T11:10:28.940Z,19.30
2023-09-27T11:12:55.317Z,19.20
2023-09-27T11:15:21.705Z,19.34
2023-09-27T11:17:48.260Z,19.46
2023-09-27T11:20:14.770Z,19.62
2023-09-27T11:22:41.177Z,19.66
2023-09-27T11:25:07.569Z,19.63
2023-09-27T11:27:33.958Z,19.67
2023-09-27T11:30:00.367Z,19.74
2023-09-27T11:32:26.749Z,19.73
2023-09-27T11:34:53.110Z,19.88
2023-09-27T11:37:19.480Z,19.85
2023-09-27T11:39:45.866Z,19.94
2023-09-27T11:42:12.242Z,19.96
2023-09-27T11:44:38.743Z,19.95
2023-09-27T11:47:05.234Z,20.04
2023-09-27T11:49:31.606Z,20.10
2023-09-27T11:52:00.859Z,20.05
2023-09-27T11:54:27.825Z,20.14
2023-09-27T11:56:54.264Z,20.23
2023-09-27T11:59:20.726Z,20.38
2023-09-27T12:01:47.129Z,20.47
2023-09-27T12:04:13.723Z,20.39
2023-09-27T12:06:40.456Z,20.49
2023-09-27T12:09:07.070Z,20.44
2023-09-27T12:11:33.528Z,20.49
2023-09-27T12:13:59.967Z,20.61
2023-09-27T12:16:26.360Z,20.70
2023-09-27T12:18:52.815Z,20.72
2023-09-27T12:21:19.343Z,20.81
2023-09-27T12:23:45.897Z,20.84
2023-09-27T12:26:12.361Z,20.98
2023-09-27T12:28:38.758Z,21.07
2023-09-27T12:31:05.173Z,21.11
2023-09-27T12:33:31.665Z,21.19
2023-09-27T12:35:58.216Z,21.24
2023-09-27T12:38:24.628Z,21.29
2023-09-27T12:40:51.013Z,21.30
2023-09-27T12:43:17.386Z,21.33
2023-09-27T12:45:44.148Z,21.39
2023-09-27T12:48:10.713Z,21.46
2023-09-27T12:50:37.188Z,21.37
2023-09-27T12:53:03.612Z,21.61
2023-09-27T12:55:29.984Z,21.54
2023-09-27T12:57:56.485Z,21.64
2023-09-27T13:00:22.923Z,21.66
2023-09-27T13:02:49.462Z,21.81
2023-09-27T13:05:16.003Z,21.62
2023-09-27T13:07:42.494Z,21.80
2023-09-27T13:10:08.912Z,21.74
2023-09-27T13:12:35.293Z,21.84
2023-09-27T13:15:01.677Z,21.78
2023-09-27T13:17:28.153Z,21.96
2023-09-27T13:19:54.618Z,22.00
2023-09-27T13:22:21.024Z,22.09
2023-09-27T13:24:47.421Z,22.20
2023-09-27T13:27:13.830Z,22.26
2023-09-27T13:29:40.262Z,22.32
2023-09-27T13:32:06.718Z,22.42
2023-09-27T13:34:33.996Z,22.48
2023-09-27T13:37:00.445Z,22.50
2023-09-27T13:39:26.955Z,22.54
2023-09-27T13:41:53.529Z,22.60
2023-09-27T13:44:20.045Z,22.75
2023-09-27T13:46:46.512Z,22.77
2023-09-27T13:49:12.938Z,22.70
2023-09-27T13:51:39.432Z,22.96
2023-09-27T13:54:05.822Z,22.97
2023-09-27T13:56:32.233Z,23.01
2023-09-27T13:58:58.669Z,22.91
2023-09-27T14:01:25.115Z,23.19
2023-09-27T14:03:51.612Z,23.31
2023-09-27T14:06:18.176Z,23.35
2023-09-27T14:08:44.710Z,23.39
2023-09-27T14:11:11.155Z,23.31
2023-09-27T14:13:37.533Z,23.27
2023-09-27T14:16:03.972Z,23.32
2023-09-27T14:18:30.479Z,23.38
2023-09-27T14:20:57.034Z,23.40
2023-09-27T14:23:23.529Z,23.27
2023-09-27T14:25:49.937Z,23.41
2023-09-27T14:28:16.309Z,23.48
2023-09-27T14:30:42.686Z,23.63
2023-09-27T14:33:09.104Z,23.54
2023-09-27T14:35:51.840Z,23.71
2023-09-27T14:38:19.128Z,23.78
2023-09-27T14:40:45.510Z,23.86
2023-09-27T14:43:11.900Z,23.99
2023-09-27T14:45:38.305Z,23.86
2023-09-27T14:48:04.722Z,23.84
2023-09-27T14:50:31.148Z,23.68
2023-09-27T14:52:57.605Z,23.69
2023-09-27T14:55:24.040Z,23.62
2023-09-27T14:57:50.455Z,23.40
2023-09-27T15:00:16.839Z,23.35
2023-09-27T15:02:43.341Z,23.26
2023-09-27T15:05:09.824Z,23.19
2023-09-27T15:07:36.273Z,23.09
2023-09-27T15:10:02.670Z,23.40
2023-09-27T15:12:31.209Z,23.74
2023-09-27T15:14:57.575Z,23.94
2023-09-27T15:17:23.939Z,24.05
2023-09-27T15:19:50.552Z,24.17
2023-09-27T15:22:16.980Z,24.27
2023-09-27T15:24:43.352Z,24.52
2023-09-27T15:27:09.748Z,24.78
2023-09-27T15:29:36.142Z,25.04
2023-09-27T15:32:02.698Z,25.15
2023-09-27T15:34:29.190Z,24.94
2023-09-27T15:36:55.637Z,24.95
2023-09-27T15:39:22.020Z,25.04
2023-09-27T15:41:48.453Z,25.29
2023-09-27T15:44:14.841Z,25.79
2023-09-27T15:46:41.280Z,26.13
2023-09-27T15:49:07.683Z,25.92
2023-09-27T15:51:34.058Z,25.66
2023-09-27T15:54:15.412Z,25.75
2023-09-27T15:56:44.751Z,26.13
2023-09-27T15:59:11.218Z,26.53
2023-09-27T16:01:37.807Z,26.40
2023-09-27T16:04:04.311Z,26.37
2023-09-27T16:06:30.741Z,26.30
2023-09-27T16:08:57.134Z,26.18
2023-09-27T16:11:23.606Z,26.19
2023-09-27T16:13:50.059Z,26.18
2023-09-27T16:16:16.519Z,26.27
2023-09-27T16:18:42.936Z,26.38
2023-09-27T16:21:09.353Z,26.45
2023-09-27T16:23:35.858Z,26.61
2023-09-27T16:26:02.457Z,26.46
2023-09-27T16:28:28.980Z,26.36
2023-09-27T16:30:55.877Z,26.05
2023-09-27T16:33:22.476Z,25.87
2023-09-27T16:35:48.960Z,25.50
2023-09-27T16:38:15.335Z,25.09
2023-09-27T16:40:41.780Z,24.78
2023-09-27T16:43:08.210Z,24.41
2023-09-27T16:45:34.628Z,24.09
2023-09-27T16:48:01.157Z,23.83
2023-09-27T16:50:27.556Z,23.62
2023-09-27T16:52:53.931Z,23.46
2023-09-27T16:55:20.378Z,23.20
2023-09-27T16:57:46.767Z,22.99
2023-09-27T17:00:13.198Z,22.72
2023-09-27T17:02:39.709Z,22.59
2023-09-27T17:05:06.321Z,22.41
2023-09-27T17:07:32.778Z,22.18
2023-09-27T17:09:59.149Z,21.87
2023-09-27T17:12:25.529Z,21.62
2023-09-27T17:14:51.930Z,21.31
2023-09-27T17:17:18.314Z,20.99
2023-09-27T17:19:44.734Z,20.77
2023-09-27T17:22:11.302Z,20.48
2023-09-27T17:24:37.696Z,20.41
2023-09-27T17:27:04.080Z,20.39
2023-09-27T17:29:30.452Z,20.29
2023-09-27T17:31:56.947Z,20.31
2023-09-27T17:34:23.472Z,20.28
2023-09-27T17:36:49.885Z,20.10
2023-09-27T17:39:16.311Z,19.83
2023-09-27T17:41:42.719Z,19.57
2023-09-27T17:44:09.162Z,19.51
2023-09-27T17:46:35.607Z,19.42
2023-09-27T17:49:01.999Z,19.37
2023-09-27T17:51:28.389Z,19.27
2023-09-27T17:53:54.943Z,19.25
2023-09-27T17:56:21.596Z,19.07
2023-09-27T17:58:48.036Z,18.94
2023-09-27T18:01:14.489Z,18.93
2023-09-27T18:03:40.998Z,18.76
2023-09-27T18:06:07.465Z,18.69
2023-09-27T18:08:33.886Z,18.61
2023-09-27T18:11:00.289Z,18.52
2023-09-27T18:13:26.735Z,18.47
2023-09-27T18:15:53.187Z,18.30
2023-09-27T18:18:19.640Z,18.32
2023-09-27T18:20:46.032Z,18.27
2023-09-27T18:23:12.519Z,18.14
2023-09-27T18:25:38.934Z,18.05
2023-09-27T18:28:05.363Z,17.85
2023-09-27T18:30:31.747Z,17.90
2023-09-27T18:32:58.154Z,17.89
2023-09-27T18:35:24.545Z,17.79
2023-09-27T18:37:50.990Z,17.82
2023-09-27T18:40:17.403Z,17.77
2023-09-27T18:42:43.777Z,17.72
2023-09-27T18:45:10.150Z,17.77
2023-09-27T18:47:36.633Z,17.77
2023-09-27T18:50:03.171Z,17.72
2023-09-27T18:52:29.626Z,17.63
2023-09-27T18:54:56.035Z,17.56
2023-09-27T18:57:22.448Z,17.41
2023-09-27T18:59:48.823Z,17.53
2023-09-27T19:02:15.230Z,17.48
2023-09-27T19:04:41.742Z,17.37
2023-09-27T19:07:08.143Z,17.31
2023-09-27T19:09:34.541Z,17.22
2023-09-27T19:12:00.932Z,17.10
2023-09-27T19:14:27.308Z,16.96
2023-09-27T19:16:53.741Z,16.82
2023-09-27T19:19:20.167Z,16.84
2023-09-27T19:21:46.566Z,16.73
2023-09-27T19:24:12.930Z,16.74
2023-09-27T19:26:39.300Z,16.62
2023-09-27T19:29:05.712Z,16.50
2023-09-27T19:31:32.197Z,16.45
2023-09-27T19:33:58.617Z,16.50
2023-09-27T19:36:24.992Z,16.57
2023-09-27T19:38:51.415Z,16.57
2023-09-27T19:41:17.796Z,16.65
2023-09-27T19:43:44.199Z,16.67
2023-09-27T19:46:10.661Z,16.69
2023-09-27T19:48:37.111Z,16.61
2023-09-27T19:51:03.486Z,16.54
2023-09-27T19:53:29.850Z,16.52
2023-09-27T19:55:56.237Z,16.42
2023-09-27T19:58:22.636Z,16.43
2023-09-27T20:00:49.015Z,16.45
2023-09-27T20:03:15.444Z,16.44
2023-09-27T20:05:41.904Z,16.54
2023-09-27T20:08:08.301Z,16.53
2023-09-27T20:10:34.720Z,16.62
2023-09-27T20:13:01.131Z,16.69
2023-09-27T20:15:27.518Z,16.71
2023-09-27T20:17:53.915Z,16.79
2023-09-27T20:20:20.359Z,16.83
2023-09-27T20:22:46.770Z,16.88
2023-09-27T20:25:13.140Z,16.87
2023-09-27T20:27:39.612Z,16.93
2023-09-27T20:30:06.006Z,16.87
2023-09-27T20:32:32.429Z,16.63
2023-09-27T20:34:58.973Z,16.51
2023-09-27T20:37:25.492Z,16.52
2023-09-27T20:39:51.867Z,16.47
2023-09-27T20:42:18.254Z,16.51
2023-09-27T20:44:44.627Z,16.54
2023-09-27T20:47:11.043Z,16.61
2023-09-27T20:49:37.485Z,16.65
2023-09-27T20:52:03.924Z,16.48
2023-09-27T20:54:30.313Z,16.38
2023-09-27T20:56:56.747Z,16.44
2023-09-27T20:59:23.172Z,16.39
2023-09-27T21:01:49.649Z,16.26
2023-09-27T21:04:16.080Z,16.10
2023-09-27T21:06:42.483Z,16.14
2023-09-27T21:09:08.867Z,16.16
2023-09-27T21:11:35.230Z,16.14
2023-09-27T21:14:01.785Z,16.12
2023-09-27T21:16:28.256Z,16.11
2023-09-27T21:18:54.681Z,15.97
2023-09-27T21:21:21.074Z,15.85
2023-09-27T21:23:47.493Z,15.98
2023-09-27T21:26:13.884Z,15.90
2023-09-27T21:28:40.279Z,15.92
2023-09-27T21:31:06.701Z,15.80
2023-09-27T21:33:33.091Z,15.74
2023-09-27T21:35:59.468Z,15.68
2023-09-27T21:38:25.858Z,15.70
2023-09-27T21:40:52.268Z,15.71
2023-09-27T21:43:18.671Z,15.70
2023-09-27T21:45:45.124Z,15.61
2023-09-27T21:48:11.532Z,15.61
2023-09-27T21:50:37.936Z,15.64
2023-09-27T21:53:04.341Z,15.65
2023-09-27T21:55:30.852Z,15.63
2023-09-27T21:57:57.294Z,15.68
2023-09-27T22:00:23.671Z,15.63
2023-09-27T22:02:50.121Z,15.64
2023-09-27T22:05:16.662Z,15.67
2023-09-27T22:07:43.061Z,15.66
2023-09-27T22:10:09.453Z,15.58
2023-09-27T22:12:35.846Z,15.58
2023-09-27T22:15:02.231Z,15.54
2023-09-27T22:17:28.668Z,15.57
2023-09-27T22:19:55.128Z,15.63
2023-09-27T22:22:21.551Z,15.64
2023-09-27T22:24:47.969Z,15.74
2023-09-27T22:27:14.357Z,15.70
2023-09-27T22:29:40.780Z,15.63
2023-09-27T22:32:07.188Z,15.55
2023-09-27T22:34:33.590Z,15.53
2023-09-27T22:37:00.005Z,15.55
2023-09-27T22:39:26.394Z,15.54
2023-09-27T22:41:52.783Z,15.58
2023-09-27T22:44:19.237Z,15.64
2023-09-27T22:46:45.651Z,15.67
2023-09-27T22:49:12.060Z,15.63
2023-09-27T22:51:38.440Z,15.66
2023-09-27T22:54:04.836Z,15.69
2023-09-27T22:56:31.214Z,15.69
2023-09-27T22:58:57.643Z,15.63
2023-09-27T23:01:24.230Z,15.59
2023-09-27T23:03:50.663Z,15.63
2023-09-27T23:06:17.104Z,15.73
2023-09-27T23:08:43.466Z,15.76
2023-09-27T23:11:09.948Z,15.75
2023-09-27T23:13:36.610Z,15.71
2023-09-27T23:16:03.047Z,15.71
2023-09-27T23:18:29.459Z,15.76
2023-09-27T23:20:55.828Z,15.72
2023-09-27T23:23:22.199Z,15.75
2023-09-27T23:25:48.571Z,15.75
2023-09-27T23:28:15.041Z,15.72
2023-09-27T23:30:41.410Z,15.70
2023-09-27T23:33:07.827Z,15.65
2023-09-27T23:35:34.224Z,15.65
2023-09-27T23:38:00.633Z,15.71
2023-09-27T23:40:27.089Z,15.73
2023-09-27T23:42:53.467Z,15.73
2023-09-27T23:45:19.835Z,15.71
2023-09-27T23:47:46.365Z,15.80
2023-09-27T23:50:12.843Z,15.81
2023-09-27T23:52:39.284Z,15.65
2023-09-27T23:55:05.684Z,15.49
2023-09-27T23:57:32.066Z,15.38
2023-09-27T23:59:58.451Z,15.30
